createdAt,value
2019-03-24T00:00:59.012Z,12.10
2019-03-24T00:03:27.814Z,11.57
2019-03-24T00:05:56.791Z,11.95
2019-03-24T00:08:29.572Z,11.63
2019-03-24T00:10:58.563Z,11.38
2019-03-24T00:13:30.026Z,11.00
2019-03-24T00:15:58.901Z,11.70
2019-03-24T00:18:27.897Z,11.25
2019-03-24T00:20:56.885Z,11.55
2019-03-24T00:23:25.817Z,11.40
2019-03-24T00:25:57.002Z,10.60
2019-03-24T00:28:25.293Z,10.43
2019-03-24T00:30:54.183Z,10.78
2019-03-24T00:33:23.089Z,11.38
2019-03-24T00:35:54.624Z,11.57
2019-03-24T00:38:26.104Z,24.05
2019-03-24T00:40:55.201Z,29.40
2019-03-24T00:43:23.924Z,14.07
2019-03-24T00:45:52.848Z,11.43
2019-03-24T00:48:21.837Z,10.00
2019-03-24T00:50:51.751Z,12.13
2019-03-24T00:53:20.643Z,10.65
2019-03-24T00:55:49.438Z,10.40
2019-03-24T00:58:18.203Z,9.63
2019-03-24T01:00:49.473Z,9.85
2019-03-24T01:03:18.451Z,8.63
2019-03-24T01:05:47.218Z,8.98
2019-03-24T01:08:16.127Z,7.90
2019-03-24T01:10:44.888Z,8.63
2019-03-24T01:13:14.049Z,7.30
2019-03-24T01:15:47.642Z,6.97
2019-03-24T01:18:13.631Z,7.05
2019-03-24T01:20:42.527Z,7.28
2019-03-24T01:23:11.618Z,6.50
2019-03-24T01:25:40.610Z,6.15
2019-03-24T01:28:09.498Z,5.83
2019-03-24T01:30:38.387Z,5.67
2019-03-24T01:33:07.276Z,6.25
2019-03-24T01:35:40.259Z,5.20
2019-03-24T01:38:09.251Z,5.00
2019-03-24T01:40:38.264Z,5.25
2019-03-24T01:43:07.135Z,4.67
2019-03-24T01:45:36.023Z,4.22
2019-03-24T01:48:05.224Z,4.33
2019-03-24T01:50:34.110Z,3.90
2019-03-24T01:53:03.104Z,3.45
2019-03-24T01:55:31.992Z,4.08
2019-03-24T01:58:03.377Z,4.20
2019-03-24T02:00:32.331Z,3.72
2019-03-24T02:03:01.222Z,3.85
2019-03-24T02:05:30.130Z,4.97
2019-03-24T02:08:00.334Z,5.03
2019-03-24T02:10:29.219Z,4.15
2019-03-24T02:12:58.420Z,4.05
2019-03-24T02:15:28.330Z,4.20
2019-03-24T02:17:59.684Z,3.70
2019-03-24T02:20:28.596Z,2.92
2019-03-24T02:22:57.362Z,3.05
2019-03-24T02:25:27.266Z,3.12
2019-03-24T02:27:56.196Z,3.22
2019-03-24T02:30:25.974Z,3.00
2019-03-24T02:32:54.857Z,2.90
2019-03-24T02:35:23.856Z,2.87
2019-03-24T02:37:53.049Z,2.98
2019-03-24T02:40:22.140Z,3.00
2019-03-24T02:42:51.034Z,2.42
2019-03-24T02:45:20.021Z,2.33
2019-03-24T02:47:48.919Z,2.52
2019-03-24T02:50:17.802Z,3.27
2019-03-24T02:52:46.791Z,2.87
2019-03-24T02:55:15.751Z,2.77
2019-03-24T02:57:44.786Z,3.08
2019-03-24T03:00:13.612Z,3.12
2019-03-24T03:02:44.940Z,2.75
2019-03-24T03:05:18.016Z,2.70
2019-03-24T03:07:46.755Z,2.70
2019-03-24T03:10:15.685Z,2.50
2019-03-24T03:12:47.553Z,2.70
2019-03-24T03:15:15.399Z,2.90
2019-03-24T03:17:44.392Z,2.95
2019-03-24T03:20:17.231Z,3.90
2019-03-24T03:22:46.163Z,2.58
2019-03-24T03:25:16.078Z,2.37
2019-03-24T03:27:44.862Z,2.52
2019-03-24T03:30:15.201Z,2.62
2019-03-24T03:32:44.182Z,2.40
2019-03-24T03:35:13.172Z,2.65
2019-03-24T03:37:44.633Z,3.20
2019-03-24T03:40:14.543Z,3.62
2019-03-24T03:42:43.357Z,3.42
2019-03-24T03:45:16.103Z,2.83
2019-03-24T03:47:49.088Z,3.10
2019-03-24T03:50:21.435Z,2.75
2019-03-24T03:52:50.352Z,2.80
2019-03-24T03:55:19.351Z,2.90
2019-03-24T03:57:48.333Z,3.67
2019-03-24T04:00:19.759Z,3.58
2019-03-24T04:02:48.678Z,3.35
2019-03-24T04:05:17.561Z,4.03
2019-03-24T04:07:46.556Z,9.33
2019-03-24T04:10:15.443Z,3.33
2019-03-24T04:12:46.891Z,8.53
2019-03-24T04:15:15.786Z,26.00
2019-03-24T04:17:44.674Z,3.58
2019-03-24T04:20:13.662Z,3.75
2019-03-24T04:22:42.766Z,4.42
2019-03-24T04:25:11.651Z,4.53
2019-03-24T04:27:40.464Z,3.00
2019-03-24T04:30:10.458Z,3.27
2019-03-24T04:32:39.445Z,3.15
2019-03-24T04:35:09.155Z,3.62
2019-03-24T04:37:38.154Z,2.98
2019-03-24T04:40:07.549Z,3.17
2019-03-24T04:42:36.432Z,3.00
2019-03-24T04:45:06.346Z,3.83
2019-03-24T04:47:35.269Z,3.52
2019-03-24T04:50:05.559Z,5.17
2019-03-24T04:52:34.551Z,3.52
2019-03-24T04:55:03.455Z,3.15
2019-03-24T04:57:32.441Z,4.62
2019-03-24T05:00:03.798Z,4.35
2019-03-24T05:02:32.875Z,4.65
2019-03-24T05:05:05.505Z,3.95
2019-03-24T05:07:35.566Z,3.63
2019-03-24T05:10:06.776Z,3.85
2019-03-24T05:12:39.386Z,3.20
2019-03-24T05:15:09.233Z,3.70
2019-03-24T05:17:38.134Z,3.33
2019-03-24T05:20:07.616Z,3.60
2019-03-24T05:22:36.484Z,2.95
2019-03-24T05:25:05.806Z,3.33
2019-03-24T05:27:34.672Z,2.60
2019-03-24T05:30:03.764Z,2.80
2019-03-24T05:32:32.769Z,4.05
2019-03-24T05:35:02.671Z,4.67
2019-03-24T05:37:36.681Z,2.85
2019-03-24T05:40:05.804Z,3.62
2019-03-24T05:42:34.770Z,3.00
2019-03-24T05:45:04.372Z,3.02
2019-03-24T05:47:37.119Z,2.98
2019-03-24T05:50:05.233Z,13.43
2019-03-24T05:52:34.318Z,3.25
2019-03-24T05:55:07.527Z,3.17
2019-03-24T05:57:36.396Z,3.45
2019-03-24T06:00:08.079Z,3.52
2019-03-24T06:02:36.946Z,2.85
2019-03-24T06:05:06.762Z,2.65
2019-03-24T06:07:39.587Z,4.00
2019-03-24T06:10:08.530Z,3.00
2019-03-24T06:12:37.418Z,3.75
2019-03-24T06:15:09.082Z,3.42
2019-03-24T06:17:47.493Z,3.62
2019-03-24T06:20:08.495Z,3.55
2019-03-24T06:22:37.477Z,3.08
2019-03-24T06:25:07.528Z,3.10
2019-03-24T06:27:36.484Z,3.47
2019-03-24T06:30:11.444Z,3.70
2019-03-24T06:32:40.256Z,3.17
2019-03-24T06:35:09.404Z,2.95
2019-03-24T06:37:38.288Z,3.35
2019-03-24T06:40:07.629Z,3.15
2019-03-24T06:42:36.580Z,3.22
2019-03-24T06:45:08.860Z,4.08
2019-03-24T06:47:37.744Z,3.85
2019-03-24T06:50:09.699Z,3.12
2019-03-24T06:52:38.691Z,3.22
2019-03-24T06:55:07.621Z,3.00
2019-03-24T06:57:36.679Z,3.50
2019-03-24T07:00:09.876Z,3.95
2019-03-24T07:02:38.756Z,5.85
2019-03-24T07:05:07.748Z,3.95
2019-03-24T07:07:36.661Z,4.22
2019-03-24T07:10:10.701Z,2.87
2019-03-24T07:12:39.641Z,3.42
2019-03-24T07:15:09.462Z,4.22
2019-03-24T07:17:43.942Z,2.90
2019-03-24T07:20:12.866Z,3.52
2019-03-24T07:22:41.852Z,2.95
2019-03-24T07:25:10.742Z,3.20
2019-03-24T07:27:39.631Z,2.90
2019-03-24T07:30:11.281Z,2.47
2019-03-24T07:32:40.176Z,2.98
2019-03-24T07:35:14.798Z,3.15
2019-03-24T07:37:48.922Z,11.60
2019-03-24T07:40:17.904Z,6.60
2019-03-24T07:42:46.794Z,8.78
2019-03-24T07:45:15.786Z,13.53
2019-03-24T07:47:49.144Z,3.70
2019-03-24T07:50:17.975Z,6.03
2019-03-24T07:52:46.964Z,19.42
2019-03-24T07:55:15.957Z,15.38
2019-03-24T07:57:44.749Z,7.08
2019-03-24T08:00:13.539Z,8.70
2019-03-24T08:02:51.069Z,13.78
2019-03-24T08:07:44.189Z,8.75
2019-03-24T08:10:13.396Z,5.53
2019-03-24T08:12:47.316Z,6.33
2019-03-24T08:15:16.386Z,5.45
2019-03-24T08:17:47.938Z,4.53
2019-03-24T08:20:16.931Z,2.42
2019-03-24T08:22:45.819Z,4.53
2019-03-24T08:25:14.707Z,4.40
2019-03-24T08:27:43.604Z,4.12
2019-03-24T08:30:12.393Z,3.70
2019-03-24T08:32:45.389Z,2.95
2019-03-24T08:35:14.398Z,4.33
2019-03-24T08:37:43.399Z,4.08
2019-03-24T08:40:12.350Z,5.90
2019-03-24T08:42:46.664Z,3.50
2019-03-24T08:45:14.846Z,3.50
2019-03-24T08:47:43.728Z,4.12
2019-03-24T08:50:12.642Z,3.05
2019-03-24T08:52:41.504Z,3.77
2019-03-24T08:55:10.402Z,3.60
2019-03-24T08:57:39.405Z,3.90
2019-03-24T09:00:08.385Z,3.77
2019-03-24T09:02:37.372Z,4.05
2019-03-24T09:05:06.993Z,2.37
2019-03-24T09:07:35.970Z,2.60
2019-03-24T09:10:05.267Z,3.25
2019-03-24T09:12:35.254Z,2.87
2019-03-24T09:15:04.584Z,3.02
2019-03-24T09:17:33.643Z,2.25
2019-03-24T09:20:09.141Z,2.30
2019-03-24T09:22:41.899Z,1.85
2019-03-24T09:25:10.789Z,2.10
2019-03-24T09:27:39.784Z,2.35
2019-03-24T09:30:14.830Z,1.87
2019-03-24T09:32:43.705Z,1.80
2019-03-24T09:35:12.596Z,1.72
2019-03-24T09:37:41.485Z,2.67
2019-03-24T09:40:13.547Z,2.12
2019-03-24T09:42:42.272Z,1.92
2019-03-24T09:45:11.329Z,2.85
2019-03-24T09:47:40.221Z,2.80
2019-03-24T09:50:09.106Z,2.80
2019-03-24T09:52:38.099Z,2.55
2019-03-24T09:55:07.402Z,2.70
2019-03-24T09:57:36.389Z,2.30
2019-03-24T10:00:05.801Z,2.77
2019-03-24T10:02:34.679Z,2.10
2019-03-24T10:05:03.672Z,1.80
2019-03-24T10:07:32.565Z,1.95
2019-03-24T10:10:01.464Z,2.37
2019-03-24T10:12:30.340Z,2.92
2019-03-24T10:15:01.688Z,2.42
2019-03-24T10:17:30.578Z,1.80
2019-03-24T10:19:59.466Z,1.95
2019-03-24T10:22:28.431Z,2.12
2019-03-24T10:24:57.450Z,2.67
2019-03-24T10:27:26.245Z,2.52
2019-03-24T10:29:55.186Z,2.52
2019-03-24T10:32:24.119Z,1.65
2019-03-24T10:34:54.137Z,1.60
2019-03-24T10:37:23.025Z,1.62
2019-03-24T10:39:51.921Z,2.02
2019-03-24T10:42:23.986Z,2.05
2019-03-24T10:44:52.866Z,1.85
2019-03-24T10:47:22.064Z,2.08
2019-03-24T10:49:54.843Z,1.70
2019-03-24T10:52:23.740Z,1.73
2019-03-24T10:54:52.638Z,1.62
2019-03-24T10:57:21.515Z,2.10
2019-03-24T10:59:58.288Z,2.05
2019-03-24T11:02:27.178Z,1.50
2019-03-24T11:04:56.111Z,2.10
2019-03-24T11:07:26.220Z,1.60
2019-03-24T11:09:55.210Z,1.62
2019-03-24T11:12:24.168Z,2.45
2019-03-24T11:14:53.061Z,1.55
2019-03-24T11:17:24.868Z,3.10
2019-03-24T11:19:52.291Z,3.55
2019-03-24T11:22:21.121Z,1.80
2019-03-24T11:24:50.804Z,1.80
2019-03-24T11:27:20.790Z,2.05
2019-03-24T11:29:49.675Z,1.60
2019-03-24T11:32:18.666Z,1.80
2019-03-24T11:34:47.556Z,2.15
2019-03-24T11:37:16.447Z,2.10
2019-03-24T11:39:45.238Z,1.82
2019-03-24T11:42:14.028Z,1.72
2019-03-24T11:44:43.012Z,1.60
2019-03-24T11:47:11.902Z,1.50
2019-03-24T11:49:46.068Z,1.80
2019-03-24T11:52:11.247Z,1.62
2019-03-24T11:54:45.119Z,2.35
2019-03-24T11:57:15.035Z,2.20
2019-03-24T11:59:43.924Z,2.12
2019-03-24T12:02:12.941Z,1.70
2019-03-24T12:04:41.808Z,2.02
2019-03-24T12:07:10.697Z,1.90
2019-03-24T12:09:39.490Z,1.52
2019-03-24T12:12:08.782Z,2.05
2019-03-24T12:14:37.774Z,1.98
2019-03-24T12:17:06.671Z,2.70
2019-03-24T12:19:35.553Z,2.95
2019-03-24T12:22:04.355Z,1.95
2019-03-24T12:24:33.336Z,2.05
2019-03-24T12:27:02.225Z,1.85
2019-03-24T12:29:32.236Z,2.10
2019-03-24T12:32:01.126Z,2.33
2019-03-24T12:34:30.121Z,2.08
2019-03-24T12:36:59.112Z,2.37
2019-03-24T12:39:28.102Z,2.02
2019-03-24T12:41:56.993Z,1.82
2019-03-24T12:44:26.905Z,4.58
2019-03-24T12:46:55.902Z,2.55
2019-03-24T12:49:24.787Z,2.37
2019-03-24T12:51:53.795Z,2.25
2019-03-24T12:54:22.675Z,1.82
2019-03-24T12:56:51.557Z,2.00
2019-03-24T12:59:20.448Z,2.20
2019-03-24T13:01:49.474Z,2.60
2019-03-24T13:04:18.434Z,2.25
2019-03-24T13:06:47.326Z,1.98
2019-03-24T13:09:16.244Z,1.72
2019-03-24T13:11:46.247Z,2.10
2019-03-24T13:14:15.127Z,2.17
2019-03-24T13:16:44.106Z,2.58
2019-03-24T13:19:13.108Z,1.70
2019-03-24T13:21:41.989Z,1.92
2019-03-24T13:24:10.881Z,2.22
2019-03-24T13:26:39.888Z,2.55
2019-03-24T13:29:08.797Z,2.80
2019-03-24T13:31:40.197Z,2.47
2019-03-24T13:34:11.175Z,1.70
2019-03-24T13:36:39.523Z,3.25
2019-03-24T13:39:08.516Z,1.82
2019-03-24T13:41:37.366Z,2.30
2019-03-24T13:44:06.321Z,2.10
2019-03-24T13:46:35.286Z,2.02
2019-03-24T13:49:07.076Z,2.45
2019-03-24T13:51:37.058Z,1.85
2019-03-24T13:54:06.157Z,2.90
2019-03-24T13:56:35.047Z,4.42
2019-03-24T13:59:03.832Z,3.45
2019-03-24T14:01:37.846Z,1.95
2019-03-24T14:04:06.831Z,1.90
2019-03-24T14:06:35.823Z,2.05
2019-03-24T14:09:07.172Z,3.98
2019-03-24T14:11:36.062Z,2.83
2019-03-24T14:14:05.060Z,2.45
2019-03-24T14:16:34.043Z,1.82
2019-03-24T14:19:02.936Z,4.10
2019-03-24T14:21:31.823Z,4.80
2019-03-24T14:24:00.712Z,3.47
2019-03-24T14:26:29.646Z,3.22
2019-03-24T14:28:59.618Z,4.50
2019-03-24T14:31:28.473Z,6.55
2019-03-24T14:33:57.501Z,5.15
2019-03-24T14:36:26.389Z,3.42
2019-03-24T14:38:55.281Z,5.35
2019-03-24T14:41:24.172Z,3.90
2019-03-24T14:43:53.058Z,2.25
2019-03-24T14:46:21.958Z,2.00
2019-03-24T14:48:50.947Z,4.83
2019-03-24T14:51:19.831Z,12.03
2019-03-24T14:53:49.755Z,6.22
2019-03-24T14:56:18.739Z,10.38
2019-03-24T14:58:47.622Z,6.60
2019-03-24T15:01:16.613Z,5.00
2019-03-24T15:03:45.503Z,4.67
2019-03-24T15:06:14.393Z,5.22
2019-03-24T15:08:47.292Z,3.25
2019-03-24T15:11:16.168Z,2.30
2019-03-24T15:13:45.058Z,2.62
2019-03-24T15:16:15.288Z,2.55
2019-03-24T15:18:44.249Z,2.08
2019-03-24T15:21:16.648Z,2.27
2019-03-24T15:23:45.527Z,5.47
2019-03-24T15:26:14.420Z,24.37
2019-03-24T15:28:43.413Z,4.30
2019-03-24T15:31:12.326Z,6.25
2019-03-24T15:33:41.294Z,4.28
2019-03-24T15:36:10.182Z,3.30
2019-03-24T15:38:39.071Z,5.35
2019-03-24T15:41:07.864Z,9.90
2019-03-24T15:43:37.678Z,5.47
2019-03-24T15:46:06.558Z,5.90
2019-03-24T15:48:35.550Z,7.90
2019-03-24T15:51:16.295Z,3.67
2019-03-24T15:53:37.528Z,3.62
2019-03-24T15:56:06.420Z,4.00
2019-03-24T15:58:35.315Z,7.40
2019-03-24T16:01:04.109Z,7.55
2019-03-24T16:03:32.985Z,6.70
2019-03-24T16:06:01.876Z,5.70
2019-03-24T16:08:30.865Z,6.42
2019-03-24T16:10:59.960Z,5.15
2019-03-24T16:13:28.794Z,6.25
2019-03-24T16:15:57.544Z,6.62
2019-03-24T16:18:26.422Z,6.85
2019-03-24T16:20:58.835Z,8.80
2019-03-24T16:23:27.787Z,15.63
2019-03-24T16:25:59.755Z,15.53
2019-03-24T16:28:28.739Z,22.62
2019-03-24T16:30:59.706Z,19.40
2019-03-24T16:33:28.156Z,19.48
2019-03-24T16:35:57.070Z,23.15
2019-03-24T16:38:26.038Z,19.87
2019-03-24T16:40:56.053Z,22.52
2019-03-24T16:43:24.943Z,24.43
2019-03-24T16:45:53.936Z,29.82
2019-03-24T16:48:22.824Z,31.37
2019-03-24T16:50:51.633Z,36.60
2019-03-24T16:53:20.501Z,37.40
2019-03-24T16:55:49.393Z,32.88
2019-03-24T16:58:19.520Z,28.27
2019-03-24T17:00:48.504Z,20.57
2019-03-24T17:03:18.430Z,19.75
2019-03-24T17:05:49.259Z,14.93
2019-03-24T17:08:18.248Z,16.93
2019-03-24T17:10:48.034Z,14.60
2019-03-24T17:13:16.966Z,12.07
2019-03-24T17:15:45.833Z,13.93
2019-03-24T17:18:17.906Z,12.15
2019-03-24T17:20:46.785Z,12.70
2019-03-24T17:23:15.673Z,14.28
2019-03-24T17:25:44.564Z,11.25
2019-03-24T17:28:18.544Z,10.58
2019-03-24T17:30:47.465Z,10.93
2019-03-24T17:33:16.473Z,10.90
2019-03-24T17:35:45.346Z,10.55
2019-03-24T17:38:14.238Z,10.03
2019-03-24T17:40:43.133Z,12.75
2019-03-24T17:43:12.121Z,13.50
2019-03-24T17:45:41.036Z,10.10
2019-03-24T17:48:10.000Z,8.20
2019-03-24T17:50:38.891Z,10.35
2019-03-24T17:53:09.939Z,9.73
2019-03-24T17:55:41.255Z,8.75
2019-03-24T17:58:10.164Z,10.08
2019-03-24T18:00:41.059Z,9.88
2019-03-24T18:03:09.818Z,8.53
2019-03-24T18:05:39.913Z,8.95
2019-03-24T18:08:11.250Z,6.78
2019-03-24T18:10:40.248Z,7.45
2019-03-24T18:13:09.132Z,8.25
2019-03-24T18:15:38.030Z,9.40
2019-03-24T18:18:07.013Z,9.00
2019-03-24T18:20:36.316Z,9.28
2019-03-24T18:23:05.202Z,7.70
2019-03-24T18:25:34.194Z,8.40
2019-03-24T18:28:03.084Z,7.83
2019-03-24T18:30:31.975Z,6.95
2019-03-24T18:33:00.773Z,7.40
2019-03-24T18:35:29.653Z,7.67
2019-03-24T18:37:58.573Z,8.08
2019-03-24T18:40:27.429Z,9.25
2019-03-24T18:42:56.524Z,8.85
2019-03-24T18:45:25.519Z,10.20
2019-03-24T18:47:54.410Z,10.15
2019-03-24T18:50:29.330Z,9.20
2019-03-24T18:52:56.797Z,10.68
2019-03-24T18:55:26.708Z,9.20
2019-03-24T18:57:55.697Z,7.70
2019-03-24T19:00:24.996Z,7.22
2019-03-24T19:02:53.888Z,5.72
2019-03-24T19:05:22.775Z,5.20
2019-03-24T19:07:51.571Z,5.67
2019-03-24T19:10:20.657Z,5.83
2019-03-24T19:12:49.657Z,6.60
2019-03-24T19:15:18.538Z,7.10
2019-03-24T19:17:47.427Z,7.22
2019-03-24T19:20:16.319Z,8.08
2019-03-24T19:22:45.213Z,8.85
2019-03-24T19:25:14.094Z,9.95
2019-03-24T19:27:47.185Z,9.90
2019-03-24T19:30:17.181Z,11.35
2019-03-24T19:32:46.395Z,10.50
2019-03-24T19:35:15.299Z,10.48
2019-03-24T19:37:45.403Z,9.43
2019-03-24T19:40:28.019Z,9.90
2019-03-24T19:42:56.948Z,10.20
2019-03-24T19:45:25.898Z,10.43
2019-03-24T19:47:55.919Z,10.43
2019-03-24T19:50:27.463Z,18.87
2019-03-24T19:52:56.358Z,22.37
2019-03-24T19:55:29.447Z,17.87
2019-03-24T19:58:00.904Z,20.10
2019-03-24T20:00:29.784Z,18.02
2019-03-24T20:02:58.774Z,17.45
2019-03-24T20:05:27.661Z,14.05
2019-03-24T20:07:57.074Z,10.88
2019-03-24T20:10:25.953Z,4.72
2019-03-24T20:12:55.150Z,5.12
2019-03-24T20:15:24.454Z,5.12
2019-03-24T20:17:53.445Z,4.42
2019-03-24T20:20:22.330Z,3.17
2019-03-24T20:22:56.609Z,4.75
2019-03-24T20:25:21.646Z,4.45
2019-03-24T20:27:50.535Z,4.50
2019-03-24T20:30:19.527Z,4.17
2019-03-24T20:32:48.416Z,6.33
2019-03-24T20:35:17.425Z,6.15
2019-03-24T20:37:46.299Z,6.20
2019-03-24T20:40:15.187Z,8.38
2019-03-24T20:42:44.180Z,9.35
2019-03-24T20:45:13.069Z,8.95
2019-03-24T20:47:43.085Z,5.30
2019-03-24T20:50:11.975Z,7.55
2019-03-24T20:52:40.869Z,4.28
2019-03-24T20:55:09.754Z,5.35
2019-03-24T20:57:38.744Z,7.47
2019-03-24T21:00:07.644Z,8.28
2019-03-24T21:02:36.523Z,7.47
2019-03-24T21:05:11.170Z,9.33
2019-03-24T21:07:40.345Z,8.68
2019-03-24T21:10:09.235Z,8.93
2019-03-24T21:12:38.226Z,10.43
2019-03-24T21:15:11.181Z,7.83
2019-03-24T21:17:38.976Z,10.25
2019-03-24T21:20:08.274Z,11.55
2019-03-24T21:22:37.164Z,8.75
2019-03-24T21:25:07.424Z,6.22
2019-03-24T21:27:36.273Z,5.60
2019-03-24T21:30:07.326Z,5.22
2019-03-24T21:32:36.214Z,4.92
2019-03-24T21:35:06.731Z,5.53
2019-03-24T21:37:37.893Z,5.78
2019-03-24T21:40:07.301Z,5.30
2019-03-24T21:42:36.572Z,4.97
2019-03-24T21:45:08.862Z,3.95
2019-03-24T21:47:37.731Z,3.80
2019-03-24T21:50:07.037Z,4.20
2019-03-24T21:52:39.714Z,4.00
2019-03-24T21:55:08.700Z,4.60
2019-03-24T21:57:38.526Z,5.05
2019-03-24T22:00:09.038Z,4.87
2019-03-24T22:02:37.928Z,3.45
2019-03-24T22:05:06.921Z,3.15
2019-03-24T22:07:37.551Z,2.85
2019-03-24T22:10:06.800Z,2.67
2019-03-24T22:12:35.742Z,3.33
2019-03-24T22:15:06.902Z,2.67
2019-03-24T22:17:35.773Z,3.02
2019-03-24T22:20:06.647Z,2.90
2019-03-24T22:22:35.619Z,3.35
2019-03-24T22:25:05.171Z,3.77
2019-03-24T22:27:34.198Z,3.27
2019-03-24T22:30:05.548Z,3.30
2019-03-24T22:32:35.392Z,3.45
2019-03-24T22:35:04.968Z,3.45
2019-03-24T22:37:36.623Z,3.00
2019-03-24T22:40:07.039Z,3.35
2019-03-24T22:42:36.142Z,3.30
2019-03-24T22:45:05.701Z,5.42
2019-03-24T22:47:34.834Z,4.45
2019-03-24T22:50:05.304Z,5.00
2019-03-24T22:52:34.252Z,4.42
2019-03-24T22:55:03.243Z,4.28
2019-03-24T22:57:32.760Z,4.37
2019-03-24T23:00:04.709Z,4.70
2019-03-24T23:02:33.828Z,4.10
2019-03-24T23:05:03.719Z,3.20
2019-03-24T23:07:32.606Z,3.98
2019-03-24T23:10:01.496Z,3.47
2019-03-24T23:12:31.410Z,3.45
2019-03-24T23:15:00.325Z,3.00
2019-03-24T23:17:29.302Z,3.58
2019-03-24T23:19:58.290Z,3.92
2019-03-24T23:22:27.274Z,3.85
2019-03-24T23:24:56.038Z,4.00
2019-03-24T23:27:24.953Z,3.85
2019-03-24T23:29:55.386Z,3.85
2019-03-24T23:32:24.266Z,4.00
2019-03-24T23:34:55.818Z,4.08
2019-03-24T23:37:24.709Z,4.45
2019-03-24T23:39:53.700Z,4.25
2019-03-24T23:42:22.591Z,4.30
2019-03-24T23:44:51.889Z,4.08
2019-03-24T23:47:20.888Z,5.30
2019-03-24T23:49:49.770Z,4.67
2019-03-24T23:52:21.225Z,4.15
2019-03-24T23:54:50.109Z,4.33
2019-03-24T23:57:25.315Z,4.53
2019-03-24T23:59:54.338Z,5.05
